sensor_id;sensor_type;location;lat;lon;timestamp;pressure;altitude;pressure_sealevel;temperature;humidity
35649;BME280;21768;48.562;13.414;2023-04-22T00:00:36;96886.03;;;11.48;56.04
35649;BME280;21768;48.562;13.414;2023-04-22T00:03:02;96880.19;;;11.49;55.87
35649;BME280;21768;48.562;13.414;2023-04-22T00:05:28;96883.34;;;11.45;56.30
35649;BME280;21768;48.562;13.414;2023-04-22T00:07:53;96880.72;;;11.43;56.61
35649;BME280;21768;48.562;13.414;2023-04-22T00:10:19;96881.50;;;11.42;56.23
35649;BME280;21768;48.562;13.414;2023-04-22T00:12:44;96884.91;;;11.43;56.21
35649;BME280;21768;48.562;13.414;2023-04-22T00:15:10;96879.69;;;11.40;56.21
35649;BME280;21768;48.562;13.414;2023-04-22T00:17:36;96873.72;;;11.38;56.14
35649;BME280;21768;48.562;13.414;2023-04-22T00:20:01;96873.47;;;11.33;56.40
35649;BME280;21768;48.562;13.414;2023-04-22T00:22:28;96870.69;;;11.29;56.58
35649;BME280;21768;48.562;13.414;2023-04-22T00:24:53;96870.34;;;11.22;56.74
35649;BME280;21768;48.562;13.414;2023-04-22T00:27:18;96875.31;;;11.21;56.87
35649;BME280;21768;48.562;13.414;2023-04-22T00:29:44;96868.44;;;11.18;56.59
35649;BME280;21768;48.562;13.414;2023-04-22T00:32:09;96862.44;;;11.16;56.48
35649;BME280;21768;48.562;13.414;2023-04-22T00:34:34;96874.06;;;11.13;56.85
35649;BME280;21768;48.562;13.414;2023-04-22T00:37:00;96869.72;;;11.10;56.72
35649;BME280;21768;48.562;13.414;2023-04-22T00:39:25;96860.16;;;11.05;56.61
35649;BME280;21768;48.562;13.414;2023-04-22T00:41:51;96867.63;;;11.03;56.78
35649;BME280;21768;48.562;13.414;2023-04-22T00:44:17;96866.69;;;11.01;56.88
35649;BME280;21768;48.562;13.414;2023-04-22T00:46:43;96870.78;;;10.99;57.06
35649;BME280;21768;48.562;13.414;2023-04-22T00:49:09;96870.78;;;10.99;57.13
35649;BME280;21768;48.562;13.414;2023-04-22T00:51:35;96869.03;;;10.98;57.21
35649;BME280;21768;48.562;13.414;2023-04-22T00:54:00;96874.78;;;10.96;57.18
35649;BME280;21768;48.562;13.414;2023-04-22T00:56:26;96862.94;;;10.95;57.13
35649;BME280;21768;48.562;13.414;2023-04-22T00:58:56;96871.31;;;10.94;57.22
35649;BME280;21768;48.562;13.414;2023-04-22T01:01:22;96868.38;;;10.86;57.87
35649;BME280;21768;48.562;13.414;2023-04-22T01:03:48;96878.31;;;10.83;58.17
35649;BME280;21768;48.562;13.414;2023-04-22T01:06:17;96871.16;;;10.76;57.79
35649;BME280;21768;48.562;13.414;2023-04-22T01:08:43;96874.47;;;10.75;57.97
35649;BME280;21768;48.562;13.414;2023-04-22T01:11:09;96870.31;;;10.75;58.00
35649;BME280;21768;48.562;13.414;2023-04-22T01:13:34;96865.09;;;10.72;58.11
35649;BME280;21768;48.562;13.414;2023-04-22T01:16:03;96869.78;;;10.66;58.17
35649;BME280;21768;48.562;13.414;2023-04-22T01:18:31;96875.38;;;10.61;58.76
35649;BME280;21768;48.562;13.414;2023-04-22T01:20:57;96871.72;;;10.55;58.72
35649;BME280;21768;48.562;13.414;2023-04-22T01:23:22;96879.13;;;10.52;58.51
35649;BME280;21768;48.562;13.414;2023-04-22T01:25:48;96871.38;;;10.49;58.69
35649;BME280;21768;48.562;13.414;2023-04-22T01:28:15;96872.94;;;10.47;59.10
35649;BME280;21768;48.562;13.414;2023-04-22T01:30:42;96872.06;;;10.47;58.87
35649;BME280;21768;48.562;13.414;2023-04-22T01:33:08;96873.44;;;10.42;59.06
35649;BME280;21768;48.562;13.414;2023-04-22T01:35:34;96879.38;;;10.42;58.71
35649;BME280;21768;48.562;13.414;2023-04-22T01:38:06;96877.53;;;10.40;59.34
35649;BME280;21768;48.562;13.414;2023-04-22T01:40:32;96882.53;;;10.38;59.45
35649;BME280;21768;48.562;13.414;2023-04-22T01:42:58;96863.13;;;10.37;58.80
35649;BME280;21768;48.562;13.414;2023-04-22T01:45:25;96883.38;;;10.39;58.85
35649;BME280;21768;48.562;13.414;2023-04-22T01:47:50;96880.78;;;10.37;59.18
35649;BME280;21768;48.562;13.414;2023-04-22T01:50:16;96882.06;;;10.31;59.47
35649;BME280;21768;48.562;13.414;2023-04-22T01:52:41;96886.84;;;10.26;59.43
35649;BME280;21768;48.562;13.414;2023-04-22T01:55:07;96887.72;;;10.27;59.47
35649;BME280;21768;48.562;13.414;2023-04-22T01:57:33;96877.44;;;10.23;59.50
35649;BME280;21768;48.562;13.414;2023-04-22T01:59:58;96878.16;;;10.21;59.85
35649;BME280;21768;48.562;13.414;2023-04-22T02:02:24;96882.00;;;10.16;59.76
35649;BME280;21768;48.562;13.414;2023-04-22T02:04:50;96880.91;;;10.11;59.67
35649;BME280;21768;48.562;13.414;2023-04-22T02:07:15;96878.97;;;10.07;59.63
35649;BME280;21768;48.562;13.414;2023-04-22T02:09:41;96886.34;;;10.04;59.71
35649;BME280;21768;48.562;13.414;2023-04-22T02:12:06;96887.13;;;10.03;59.89
35649;BME280;21768;48.562;13.414;2023-04-22T02:14:32;96886.78;;;9.97;60.18
35649;BME280;21768;48.562;13.414;2023-04-22T02:16:57;96891.81;;;9.97;59.97
35649;BME280;21768;48.562;13.414;2023-04-22T02:19:22;96889.38;;;9.98;60.00
35649;BME280;21768;48.562;13.414;2023-04-22T02:21:48;96883.28;;;9.95;60.08
35649;BME280;21768;48.562;13.414;2023-04-22T02:24:13;96886.41;;;9.90;60.10
35649;BME280;21768;48.562;13.414;2023-04-22T02:26:39;96873.56;;;9.86;60.37
35649;BME280;21768;48.562;13.414;2023-04-22T02:29:06;96870.59;;;9.78;60.65
35649;BME280;21768;48.562;13.414;2023-04-22T02:31:31;96875.06;;;9.69;60.85
35649;BME280;21768;48.562;13.414;2023-04-22T02:33:56;96877.59;;;9.69;60.94
35649;BME280;21768;48.562;13.414;2023-04-22T02:36:22;96871.59;;;9.67;61.14
35649;BME280;21768;48.562;13.414;2023-04-22T02:38:48;96878.25;;;9.67;60.87
35649;BME280;21768;48.562;13.414;2023-04-22T02:41:13;96881.66;;;9.67;61.02
35649;BME280;21768;48.562;13.414;2023-04-22T02:43:38;96878.13;;;9.64;61.43
35649;BME280;21768;48.562;13.414;2023-04-22T02:46:06;96878.13;;;9.64;61.35
35649;BME280;21768;48.562;13.414;2023-04-22T02:48:31;96886.44;;;9.63;61.42
35649;BME280;21768;48.562;13.414;2023-04-22T02:50:57;96878.88;;;9.63;61.47
35649;BME280;21768;48.562;13.414;2023-04-22T02:53:22;96885.47;;;9.61;61.33
35649;BME280;21768;48.562;13.414;2023-04-22T02:55:48;96877.84;;;9.59;61.56
35649;BME280;21768;48.562;13.414;2023-04-22T02:58:13;96879.09;;;9.52;61.52
35649;BME280;21768;48.562;13.414;2023-04-22T03:00:39;96880.47;;;9.47;61.76
35649;BME280;21768;48.562;13.414;2023-04-22T03:03:04;96883.56;;;9.43;61.75
35649;BME280;21768;48.562;13.414;2023-04-22T03:05:30;96884.34;;;9.42;61.79
35649;BME280;21768;48.562;13.414;2023-04-22T03:07:55;96883.22;;;9.37;61.93
35649;BME280;21768;48.562;13.414;2023-04-22T03:10:20;96887.97;;;9.33;61.75
35649;BME280;21768;48.562;13.414;2023-04-22T03:12:46;96889.34;;;9.28;62.41
35649;BME280;21768;48.562;13.414;2023-04-22T03:15:12;96884.78;;;9.22;62.47
35649;BME280;21768;48.562;13.414;2023-04-22T03:17:37;96901.34;;;9.18;62.32
35649;BME280;21768;48.562;13.414;2023-04-22T03:20:03;96893.22;;;9.23;62.24
35649;BME280;21768;48.562;13.414;2023-04-22T03:22:28;96894.84;;;9.22;62.25
35649;BME280;21768;48.562;13.414;2023-04-22T03:24:54;96892.91;;;9.18;62.61
35649;BME280;21768;48.562;13.414;2023-04-22T03:27:20;96893.63;;;9.15;62.90
35649;BME280;21768;48.562;13.414;2023-04-22T03:29:45;96893.69;;;9.17;63.09
35649;BME280;21768;48.562;13.414;2023-04-22T03:32:10;96887.88;;;9.18;63.12
35649;BME280;21768;48.562;13.414;2023-04-22T03:34:36;96892.06;;;9.17;63.11
35649;BME280;21768;48.562;13.414;2023-04-22T03:37:01;96892.91;;;9.18;63.25
35649;BME280;21768;48.562;13.414;2023-04-22T03:39:27;96901.34;;;9.18;62.87
35649;BME280;21768;48.562;13.414;2023-04-22T03:41:52;96906.78;;;9.11;63.15
35649;BME280;21768;48.562;13.414;2023-04-22T03:44:17;96900.03;;;9.10;63.16
35649;BME280;21768;48.562;13.414;2023-04-22T03:46:43;96900.78;;;9.09;63.24
35649;BME280;21768;48.562;13.414;2023-04-22T03:49:08;96904.56;;;9.03;63.37
35649;BME280;21768;48.562;13.414;2023-04-22T03:51:33;96909.31;;;8.98;63.50
35649;BME280;21768;48.562;13.414;2023-04-22T03:53:59;96915.88;;;8.96;63.50
35649;BME280;21768;48.562;13.414;2023-04-22T03:56:24;96919.84;;;8.93;63.77
35649;BME280;21768;48.562;13.414;2023-04-22T03:58:50;96914.13;;;8.95;64.05
35649;BME280;21768;48.562;13.414;2023-04-22T04:01:15;96913.94;;;8.92;64.07
35649;BME280;21768;48.562;13.414;2023-04-22T04:03:41;96913.78;;;8.89;64.14
35649;BME280;21768;48.562;13.414;2023-04-22T04:06:06;96910.09;;;8.84;64.14
35649;BME280;21768;48.562;13.414;2023-04-22T04:08:32;96916.88;;;8.85;64.13
35649;BME280;21768;48.562;13.414;2023-04-22T04:10:57;96914.25;;;8.83;64.28
35649;BME280;21768;48.562;13.414;2023-04-22T04:13:22;96913.38;;;8.83;64.31
35649;BME280;21768;48.562;13.414;2023-04-22T04:15:48;96911.84;;;8.85;64.33
35649;BME280;21768;48.562;13.414;2023-04-22T04:18:13;96901.19;;;8.89;64.37
35649;BME280;21768;48.562;13.414;2023-04-22T04:20:39;96913.59;;;8.86;64.50
35649;BME280;21768;48.562;13.414;2023-04-22T04:23:04;96909.91;;;8.81;64.40
35649;BME280;21768;48.562;13.414;2023-04-22T04:25:30;96911.66;;;8.82;64.42
35649;BME280;21768;48.562;13.414;2023-04-22T04:28:02;96912.50;;;8.82;64.69
35649;BME280;21768;48.562;13.414;2023-04-22T04:30:29;96917.06;;;8.88;64.38
35649;BME280;21768;48.562;13.414;2023-04-22T04:32:54;96913.28;;;8.95;64.26
35649;BME280;21768;48.562;13.414;2023-04-22T04:35:21;96915.22;;;8.99;64.32
35649;BME280;21768;48.562;13.414;2023-04-22T04:37:47;96909.97;;;8.96;64.21
35649;BME280;21768;48.562;13.414;2023-04-22T04:40:15;96902.34;;;8.94;64.18
35649;BME280;21768;48.562;13.414;2023-04-22T04:42:40;96914.13;;;8.95;64.35
35649;BME280;21768;48.562;13.414;2023-04-22T04:45:07;96916.28;;;9.02;64.46
35649;BME280;21768;48.562;13.414;2023-04-22T04:47:33;96912.97;;;9.16;64.47
35649;BME280;21768;48.562;13.414;2023-04-22T04:50:00;96912.66;;;9.25;64.56
35649;BME280;21768;48.562;13.414;2023-04-22T04:52:28;96915.75;;;9.34;64.26
35649;BME280;21768;48.562;13.414;2023-04-22T04:54:54;96919.69;;;9.44;64.41
35649;BME280;21768;48.562;13.414;2023-04-22T04:57:19;96907.88;;;9.56;64.37
35649;BME280;21768;48.562;13.414;2023-04-22T04:59:44;96910.31;;;9.69;64.28
35649;BME280;21768;48.562;13.414;2023-04-22T05:02:10;96916.03;;;9.80;64.12
35649;BME280;21768;48.562;13.414;2023-04-22T05:04:35;96910.38;;;9.84;64.07
35649;BME280;21768;48.562;13.414;2023-04-22T05:07:00;96909.88;;;9.89;64.10
35649;BME280;21768;48.562;13.414;2023-04-22T05:09:26;96913.25;;;9.90;64.12
35649;BME280;21768;48.562;13.414;2023-04-22T05:11:51;96906.75;;;9.94;64.27
35649;BME280;21768;48.562;13.414;2023-04-22T05:14:17;96905.38;;;9.99;63.88
35649;BME280;21768;48.562;13.414;2023-04-22T05:16:42;96902.44;;;10.06;63.93
35649;BME280;21768;48.562;13.414;2023-04-22T05:19:08;96904.69;;;10.16;63.92
35649;BME280;21768;48.562;13.414;2023-04-22T05:21:33;96903.91;;;10.30;63.52
35649;BME280;21768;48.562;13.414;2023-04-22T05:23:59;96907.47;;;10.48;63.37
35649;BME280;21768;48.562;13.414;2023-04-22T05:26:25;96905.00;;;10.65;62.95
35649;BME280;21768;48.562;13.414;2023-04-22T05:28:51;96911.72;;;10.79;62.59
35649;BME280;21768;48.562;13.414;2023-04-22T05:31:16;96913.91;;;10.87;62.51
35649;BME280;21768;48.562;13.414;2023-04-22T05:33:41;96906.81;;;10.97;62.28
35649;BME280;21768;48.562;13.414;2023-04-22T05:36:07;96906.63;;;11.08;62.03
35649;BME280;21768;48.562;13.414;2023-04-22T05:38:32;96912.63;;;11.10;61.85
35649;BME280;21768;48.562;13.414;2023-04-22T05:40:57;96912.06;;;11.16;61.69
35649;BME280;21768;48.562;13.414;2023-04-22T05:43:23;96911.63;;;11.23;61.23
35649;BME280;21768;48.562;13.414;2023-04-22T05:45:48;96913.00;;;11.33;61.06
35649;BME280;21768;48.562;13.414;2023-04-22T05:48:13;96907.88;;;11.47;61.08
35649;BME280;21768;48.562;13.414;2023-04-22T05:50:39;96909.25;;;11.57;60.83
35649;BME280;21768;48.562;13.414;2023-04-22T05:53:05;96907.84;;;11.62;60.38
35649;BME280;21768;48.562;13.414;2023-04-22T05:55:30;96915.44;;;11.62;60.35
35649;BME280;21768;48.562;13.414;2023-04-22T05:57:55;96906.41;;;11.67;60.19
35649;BME280;21768;48.562;13.414;2023-04-22T06:00:21;96905.34;;;11.78;60.15
35649;BME280;21768;48.562;13.414;2023-04-22T06:02:46;96905.84;;;11.87;59.72
35649;BME280;21768;48.562;13.414;2023-04-22T06:05:12;96907.00;;;11.94;59.26
35649;BME280;21768;48.562;13.414;2023-04-22T06:07:37;96909.94;;;12.02;58.84
35649;BME280;21768;48.562;13.414;2023-04-22T06:10:02;96910.41;;;12.11;58.57
35649;BME280;21768;48.562;13.414;2023-04-22T06:12:28;96912.28;;;12.15;58.69
35649;BME280;21768;48.562;13.414;2023-04-22T06:14:53;96914.25;;;12.20;58.66
35649;BME280;21768;48.562;13.414;2023-04-22T06:17:19;96917.03;;;12.25;58.34
35649;BME280;21768;48.562;13.414;2023-04-22T06:19:44;96920.66;;;12.30;58.35
35649;BME280;21768;48.562;13.414;2023-04-22T06:22:09;96921.09;;;12.39;58.60
35649;BME280;21768;48.562;13.414;2023-04-22T06:24:35;96920.06;;;12.52;58.42
35649;BME280;21768;48.562;13.414;2023-04-22T06:27:00;96914.72;;;12.64;57.94
35649;BME280;21768;48.562;13.414;2023-04-22T06:29:26;96919.28;;;12.71;57.75
35649;BME280;21768;48.562;13.414;2023-04-22T06:31:51;96917.22;;;12.80;57.80
35649;BME280;21768;48.562;13.414;2023-04-22T06:34:18;96909.25;;;12.90;58.02
35649;BME280;21768;48.562;13.414;2023-04-22T06:36:44;96916.50;;;13.00;57.29
35649;BME280;21768;48.562;13.414;2023-04-22T06:39:09;96915.34;;;13.11;56.92
35649;BME280;21768;48.562;13.414;2023-04-22T06:41:35;96915.06;;;13.23;57.14
35649;BME280;21768;48.562;13.414;2023-04-22T06:44:00;96915.03;;;13.41;56.81
35649;BME280;21768;48.562;13.414;2023-04-22T06:46:26;96916.50;;;13.53;56.54
35649;BME280;21768;48.562;13.414;2023-04-22T06:48:51;96919.34;;;13.61;55.97
35649;BME280;21768;48.562;13.414;2023-04-22T06:51:17;96917.25;;;13.70;56.10
35649;BME280;21768;48.562;13.414;2023-04-22T06:53:42;96912.59;;;13.79;55.60
35649;BME280;21768;48.562;13.414;2023-04-22T06:56:07;96911.44;;;13.92;56.00
35649;BME280;21768;48.562;13.414;2023-04-22T06:58:33;96918.16;;;14.09;55.24
35649;BME280;21768;48.562;13.414;2023-04-22T07:00:58;96923.19;;;14.28;54.84
35649;BME280;21768;48.562;13.414;2023-04-22T07:03:24;96924.59;;;14.41;53.81
35649;BME280;21768;48.562;13.414;2023-04-22T07:05:49;96924.19;;;14.51;54.23
35649;BME280;21768;48.562;13.414;2023-04-22T07:08:15;96922.16;;;14.63;53.78
35649;BME280;21768;48.562;13.414;2023-04-22T07:10:40;96929.41;;;14.75;53.38
35649;BME280;21768;48.562;13.414;2023-04-22T07:13:06;96922.28;;;14.87;52.80
35649;BME280;21768;48.562;13.414;2023-04-22T07:15:31;96922.84;;;15.01;52.60
35649;BME280;21768;48.562;13.414;2023-04-22T07:17:56;96921.66;;;15.14;52.49
35649;BME280;21768;48.562;13.414;2023-04-22T07:20:22;96919.78;;;15.30;52.80
35649;BME280;21768;48.562;13.414;2023-04-22T07:22:47;96922.22;;;15.50;52.94
35649;BME280;21768;48.562;13.414;2023-04-22T07:25:13;96923.00;;;15.70;52.37
35649;BME280;21768;48.562;13.414;2023-04-22T07:27:38;96919.31;;;15.85;51.11
35649;BME280;21768;48.562;13.414;2023-04-22T07:30:07;96912.25;;;16.01;49.94
35649;BME280;21768;48.562;13.414;2023-04-22T07:32:33;96918.63;;;16.13;50.17
35649;BME280;21768;48.562;13.414;2023-04-22T07:34:58;96916.69;;;16.30;50.30
35649;BME280;21768;48.562;13.414;2023-04-22T07:37:24;96918.25;;;16.50;50.03
35649;BME280;21768;48.562;13.414;2023-04-22T07:39:50;96908.59;;;16.65;48.59
35649;BME280;21768;48.562;13.414;2023-04-22T07:42:15;96908.38;;;16.85;48.60
35649;BME280;21768;48.562;13.414;2023-04-22T07:44:41;96912.50;;;17.07;48.15
35649;BME280;21768;48.562;13.414;2023-04-22T07:47:06;96903.88;;;17.30;47.16
35649;BME280;21768;48.562;13.414;2023-04-22T07:49:32;96910.22;;;17.43;47.02
35649;BME280;21768;48.562;13.414;2023-04-22T07:51:58;96908.09;;;17.58;46.43
35649;BME280;21768;48.562;13.414;2023-04-22T07:54:23;96907.94;;;17.79;46.29
35649;BME280;21768;48.562;13.414;2023-04-22T07:56:49;96900.41;;;17.85;45.22
35649;BME280;21768;48.562;13.414;2023-04-22T07:59:14;96910.41;;;18.06;45.81
35649;BME280;21768;48.562;13.414;2023-04-22T08:01:40;96902.63;;;18.34;45.73
35649;BME280;21768;48.562;13.414;2023-04-22T08:04:05;96902.34;;;18.55;44.80
35649;BME280;21768;48.562;13.414;2023-04-22T08:06:31;96898.59;;;18.74;44.46
35649;BME280;21768;48.562;13.414;2023-04-22T08:08:57;96897.47;;;18.97;43.12
35649;BME280;21768;48.562;13.414;2023-04-22T08:11:22;96901.28;;;19.14;43.50
35649;BME280;21768;48.562;13.414;2023-04-22T08:13:48;96905.22;;;19.37;42.59
35649;BME280;21768;48.562;13.414;2023-04-22T08:16:13;96901.38;;;19.53;42.82
35649;BME280;21768;48.562;13.414;2023-04-22T08:18:38;96899.38;;;19.81;41.27
35649;BME280;21768;48.562;13.414;2023-04-22T08:21:04;96896.75;;;20.20;40.99
35649;BME280;21768;48.562;13.414;2023-04-22T08:23:30;96899.56;;;20.79;39.83
35649;BME280;21768;48.562;13.414;2023-04-22T08:25:55;96901.59;;;21.54;39.14
35649;BME280;21768;48.562;13.414;2023-04-22T08:28:20;96901.72;;;21.61;39.23
35649;BME280;21768;48.562;13.414;2023-04-22T08:30:46;96899.06;;;21.57;39.14
35649;BME280;21768;48.562;13.414;2023-04-22T08:33:11;96894.81;;;22.22;37.94
35649;BME280;21768;48.562;13.414;2023-04-22T08:35:37;96890.81;;;22.47;38.07
35649;BME280;21768;48.562;13.414;2023-04-22T08:38:02;96890.94;;;23.67;35.92
35649;BME280;21768;48.562;13.414;2023-04-22T08:40:28;96887.84;;;24.77;34.06
35649;BME280;21768;48.562;13.414;2023-04-22T08:42:54;96890.47;;;25.64;32.88
35649;BME280;21768;48.562;13.414;2023-04-22T08:45:20;96891.97;;;26.22;31.88
35649;BME280;21768;48.562;13.414;2023-04-22T08:47:48;96895.47;;;26.04;30.90
35649;BME280;21768;48.562;13.414;2023-04-22T08:50:13;96887.81;;;25.75;32.67
35649;BME280;21768;48.562;13.414;2023-04-22T08:52:41;96894.78;;;25.49;31.96
35649;BME280;21768;48.562;13.414;2023-04-22T08:55:07;96888.78;;;25.08;32.83
35649;BME280;21768;48.562;13.414;2023-04-22T08:57:34;96891.31;;;24.78;32.76
35649;BME280;21768;48.562;13.414;2023-04-22T09:00:01;96881.81;;;24.53;33.52
35649;BME280;21768;48.562;13.414;2023-04-22T09:02:28;96887.88;;;25.45;32.26
35649;BME280;21768;48.562;13.414;2023-04-22T09:04:56;96889.53;;;25.82;31.48
35649;BME280;21768;48.562;13.414;2023-04-22T09:07:24;96887.88;;;25.69;31.03
35649;BME280;21768;48.562;13.414;2023-04-22T09:09:52;96883.50;;;25.77;31.08
35649;BME280;21768;48.562;13.414;2023-04-22T09:12:19;96880.81;;;26.10;30.25
35649;BME280;21768;48.562;13.414;2023-04-22T09:14:44;96884.88;;;26.62;30.48
35649;BME280;21768;48.562;13.414;2023-04-22T09:17:10;96881.06;;;27.13;30.08
35649;BME280;21768;48.562;13.414;2023-04-22T09:19:37;96879.16;;;27.32;27.89
35649;BME280;21768;48.562;13.414;2023-04-22T09:22:03;96872.31;;;27.23;28.15
35649;BME280;21768;48.562;13.414;2023-04-22T09:24:28;96875.38;;;27.68;26.40
35649;BME280;21768;48.562;13.414;2023-04-22T09:26:54;96876.06;;;27.82;27.37
35649;BME280;21768;48.562;13.414;2023-04-22T09:29:28;96875.13;;;27.91;27.80
35649;BME280;21768;48.562;13.414;2023-04-22T09:31:54;96870.41;;;28.86;25.69
35649;BME280;21768;48.562;13.414;2023-04-22T09:34:20;96873.63;;;29.96;25.31
35649;BME280;21768;48.562;13.414;2023-04-22T09:36:49;96862.88;;;30.54;24.08
35649;BME280;21768;48.562;13.414;2023-04-22T09:39:15;96866.63;;;30.81;23.84
35649;BME280;21768;48.562;13.414;2023-04-22T09:41:41;96865.97;;;31.08;23.92
35649;BME280;21768;48.562;13.414;2023-04-22T09:44:15;96858.50;;;32.25;21.97
35649;BME280;21768;48.562;13.414;2023-04-22T09:46:42;96861.19;;;33.07;21.60
35649;BME280;21768;48.562;13.414;2023-04-22T09:49:08;96857.00;;;32.73;23.00
35649;BME280;21768;48.562;13.414;2023-04-22T09:51:33;96856.16;;;33.01;22.47
35649;BME280;21768;48.562;13.414;2023-04-22T09:54:06;96857.47;;;33.40;21.16
35649;BME280;21768;48.562;13.414;2023-04-22T09:56:53;96850.13;;;35.12;20.88
35649;BME280;21768;48.562;13.414;2023-04-22T10:01:48;96854.34;;;37.27;16.80
35649;BME280;21768;48.562;13.414;2023-04-22T10:04:14;96849.84;;;38.14;15.25
35649;BME280;21768;48.562;13.414;2023-04-22T10:06:41;96851.06;;;36.50;16.32
35649;BME280;21768;48.562;13.414;2023-04-22T10:09:06;96845.50;;;34.97;17.31
35649;BME280;21768;48.562;13.414;2023-04-22T10:11:33;96842.31;;;35.32;17.30
35649;BME280;21768;48.562;13.414;2023-04-22T10:13:59;96841.97;;;35.60;16.81
35649;BME280;21768;48.562;13.414;2023-04-22T10:16:30;96844.47;;;35.63;18.63
35649;BME280;21768;48.562;13.414;2023-04-22T10:18:57;96840.72;;;34.41;18.00
35649;BME280;21768;48.562;13.414;2023-04-22T10:21:25;96846.16;;;33.65;18.85
35649;BME280;21768;48.562;13.414;2023-04-22T10:23:51;96841.50;;;34.43;19.13
35649;BME280;21768;48.562;13.414;2023-04-22T10:29:05;96837.94;;;36.67;17.16
35649;BME280;21768;48.562;13.414;2023-04-22T10:31:32;96840.03;;;36.42;16.77
35649;BME280;21768;48.562;13.414;2023-04-22T10:34:14;96837.06;;;35.92;17.05
35649;BME280;21768;48.562;13.414;2023-04-22T10:37:06;96833.75;;;36.63;17.29
35649;BME280;21768;48.562;13.414;2023-04-22T10:39:32;96826.59;;;36.86;17.43
35649;BME280;21768;48.562;13.414;2023-04-22T10:42:07;96826.59;;;36.86;17.74
35649;BME280;21768;48.562;13.414;2023-04-22T10:44:59;96821.25;;;37.73;16.47
35649;BME280;21768;48.562;13.414;2023-04-22T10:47:29;96819.00;;;36.97;15.86
35649;BME280;21768;48.562;13.414;2023-04-22T10:52:46;96818.72;;;35.71;17.92
35649;BME280;21768;48.562;13.414;2023-04-22T10:55:12;96811.03;;;35.87;18.08
35649;BME280;21768;48.562;13.414;2023-04-22T10:57:40;96811.88;;;35.27;17.33
35649;BME280;21768;48.562;13.414;2023-04-22T11:00:30;96810.91;;;34.89;18.38
35649;BME280;21768;48.562;13.414;2023-04-22T11:03:07;96818.97;;;34.16;18.23
35649;BME280;21768;48.562;13.414;2023-04-22T11:05:33;96819.00;;;33.42;19.02
35649;BME280;21768;48.562;13.414;2023-04-22T11:13:06;96811.03;;;35.06;18.34
35649;BME280;21768;48.562;13.414;2023-04-22T11:15:34;96809.97;;;34.23;19.11
35649;BME280;21768;48.562;13.414;2023-04-22T11:18:00;96816.56;;;33.63;19.86
35649;BME280;21768;48.562;13.414;2023-04-22T11:20:26;96815.91;;;33.31;19.49
35649;BME280;21768;48.562;13.414;2023-04-22T11:22:54;96811.09;;;32.66;21.00
35649;BME280;21768;48.562;13.414;2023-04-22T11:25:20;96808.44;;;32.10;21.19
35649;BME280;21768;48.562;13.414;2023-04-22T11:27:46;96808.75;;;31.02;22.24
35649;BME280;21768;48.562;13.414;2023-04-22T11:30:17;96799.91;;;29.95;23.17
35649;BME280;21768;48.562;13.414;2023-04-22T11:32:48;96812.34;;;28.89;23.37
35649;BME280;21768;48.562;13.414;2023-04-22T11:37:49;96794.69;;;27.16;25.23
35649;BME280;21768;48.562;13.414;2023-04-22T11:40:17;96788.00;;;26.89;25.33
35649;BME280;21768;48.562;13.414;2023-04-22T11:42:43;96789.03;;;26.72;25.78
35649;BME280;21768;48.562;13.414;2023-04-22T11:45:09;96787.44;;;26.53;26.73
35649;BME280;21768;48.562;13.414;2023-04-22T11:47:36;96789.31;;;26.33;26.33
35649;BME280;21768;48.562;13.414;2023-04-22T11:50:04;96791.13;;;26.16;26.47
35649;BME280;21768;48.562;13.414;2023-04-22T11:57:44;96785.97;;;26.16;27.36
35649;BME280;21768;48.562;13.414;2023-04-22T12:00:12;96785.25;;;25.83;24.53
35649;BME280;21768;48.562;13.414;2023-04-22T12:02:39;96787.88;;;25.74;26.64
35649;BME280;21768;48.562;13.414;2023-04-22T12:05:08;96784.41;;;25.81;29.14
35649;BME280;21768;48.562;13.414;2023-04-22T12:07:35;96788.69;;;25.90;27.77
35649;BME280;21768;48.562;13.414;2023-04-22T12:10:01;96779.22;;;25.87;28.07
35649;BME280;21768;48.562;13.414;2023-04-22T12:12:27;96787.84;;;25.83;28.60
35649;BME280;21768;48.562;13.414;2023-04-22T12:14:53;96787.06;;;25.67;28.24
35649;BME280;21768;48.562;13.414;2023-04-22T12:17:24;96776.75;;;25.63;28.46
35649;BME280;21768;48.562;13.414;2023-04-22T12:19:53;96775.81;;;25.74;28.64
35649;BME280;21768;48.562;13.414;2023-04-22T12:22:27;96772.41;;;25.72;28.76
35649;BME280;21768;48.562;13.414;2023-04-22T12:24:52;96773.28;;;25.70;28.52
35649;BME280;21768;48.562;13.414;2023-04-22T12:27:19;96775.88;;;25.65;29.08
35649;BME280;21768;48.562;13.414;2023-04-22T12:29:52;96774.16;;;25.67;28.38
35649;BME280;21768;48.562;13.414;2023-04-22T12:32:22;96765.53;;;25.55;27.80
35649;BME280;21768;48.562;13.414;2023-04-22T12:34:48;96777.59;;;25.57;28.69
35649;BME280;21768;48.562;13.414;2023-04-22T12:37:14;96764.69;;;25.66;28.78
35649;BME280;21768;48.562;13.414;2023-04-22T12:39:40;96768.09;;;25.73;29.01
35649;BME280;21768;48.562;13.414;2023-04-22T12:42:06;96763.66;;;25.96;29.63
35649;BME280;21768;48.562;13.414;2023-04-22T12:44:32;96772.19;;;26.07;28.53
35649;BME280;21768;48.562;13.414;2023-04-22T12:46:57;96760.25;;;25.88;27.23
35649;BME280;21768;48.562;13.414;2023-04-22T12:49:24;96749.88;;;25.96;27.76
35649;BME280;21768;48.562;13.414;2023-04-22T12:51:49;96754.06;;;26.12;28.16
35649;BME280;21768;48.562;13.414;2023-04-22T12:54:17;96751.44;;;26.23;28.77
35649;BME280;21768;48.562;13.414;2023-04-22T12:56:44;96760.84;;;26.33;28.18
35649;BME280;21768;48.562;13.414;2023-04-22T12:59:09;96755.59;;;26.45;29.11
35649;BME280;21768;48.562;13.414;2023-04-22T13:01:35;96764.13;;;26.55;26.55
35649;BME280;21768;48.562;13.414;2023-04-22T13:04:00;96758.22;;;26.42;27.56
35649;BME280;21768;48.562;13.414;2023-04-22T13:06:26;96754.81;;;26.34;27.40
35649;BME280;21768;48.562;13.414;2023-04-22T13:08:53;96749.66;;;26.31;28.07